createdAt,value
2023-04-11T00:00:01.321Z,97522.81
2023-04-11T00:02:28.226Z,97504.97
2023-04-11T00:04:57.412Z,97499.66
2023-04-11T00:07:24.462Z,97478.47
2023-04-11T00:09:51.518Z,97510.97
2023-04-11T00:12:18.480Z,97498.41
2023-04-11T00:14:45.814Z,97501.56
2023-04-11T00:17:17.780Z,97487.44
2023-04-11T00:19:46.379Z,97487.28
2023-04-11T00:22:15.791Z,97494.97
2023-04-11T00:24:42.469Z,97471.41
2023-04-11T00:27:09.314Z,97482.22
2023-04-11T00:29:37.176Z,97453.19
2023-04-11T00:32:04.506Z,97448.97
2023-04-11T00:34:31.707Z,97481.94
2023-04-11T00:36:58.467Z,97470.41
2023-04-11T00:39:26.687Z,97448.09
2023-04-11T00:41:53.610Z,97452.59
2023-04-11T00:44:20.288Z,97451.72
2023-04-11T00:46:47.064Z,97456.09
2023-04-11T00:49:14.938Z,97457.22
2023-04-11T00:51:41.636Z,97459.47
2023-04-11T00:54:10.533Z,97460.50
2023-04-11T00:56:37.923Z,97457.34
2023-04-11T00:59:04.691Z,97452.91
2023-04-11T01:01:36.512Z,97463.50
2023-04-11T01:04:03.784Z,97456.41
2023-04-11T01:06:32.634Z,97440.88
2023-04-11T01:08:59.926Z,97431.28
2023-04-11T01:11:27.201Z,97446.69
2023-04-11T01:13:54.491Z,97444.22
2023-04-11T01:16:21.968Z,97439.69
2023-04-11T01:18:49.795Z,97442.44
2023-04-11T01:21:19.569Z,97437.63
2023-04-11T01:23:49.082Z,97436.84
2023-04-11T01:26:16.466Z,97444.94
2023-04-11T01:28:43.171Z,97440.47
2023-04-11T01:31:09.920Z,97434.59
2023-04-11T01:33:36.993Z,97437.72
2023-04-11T01:36:03.981Z,97432.84
2023-04-11T01:38:30.785Z,97427.75
2023-04-11T01:40:59.101Z,97408.88
2023-04-11T01:43:25.788Z,97418.44
2023-04-11T01:45:53.058Z,97411.63
2023-04-11T01:48:20.905Z,97395.28
2023-04-11T01:50:47.726Z,97406.38
2023-04-11T01:53:14.952Z,97401.78
2023-04-11T01:55:41.794Z,97385.06
2023-04-11T01:58:08.455Z,97380.97
2023-04-11T02:00:37.413Z,97384.91
2023-04-11T02:03:05.454Z,97382.81
2023-04-11T02:05:32.913Z,97405.28
2023-04-11T02:07:59.810Z,97389.78
2023-04-11T02:10:26.509Z,97389.47
2023-04-11T02:12:53.153Z,97378.03
2023-04-11T02:15:20.007Z,97363.06
2023-04-11T02:17:46.835Z,97369.53
2023-04-11T02:20:14.465Z,97381.91
2023-04-11T02:22:41.825Z,97352.78
2023-04-11T02:25:08.893Z,97366.66
2023-04-11T02:27:35.861Z,97356.69
2023-04-11T02:30:06.129Z,97363.13
2023-04-11T02:32:40.878Z,97356.66
2023-04-11T02:35:10.713Z,97359.78
2023-04-11T02:37:37.627Z,97350.44
2023-04-11T02:40:05.149Z,97367.44
2023-04-11T02:42:31.910Z,97340.88
2023-04-11T02:44:58.586Z,97347.63
2023-04-11T02:47:25.533Z,97347.19
2023-04-11T02:49:52.417Z,97334.69
2023-04-11T02:52:19.827Z,97346.81
2023-04-11T02:54:46.866Z,97333.94
2023-04-11T02:57:13.729Z,97348.22
2023-04-11T02:59:40.500Z,97347.88
2023-04-11T03:02:07.200Z,97340.66
2023-04-11T03:04:34.028Z,97337.16
2023-04-11T03:07:00.773Z,97333.19
2023-04-11T03:09:27.771Z,97330.53
2023-04-11T03:11:54.684Z,97316.06
2023-04-11T03:14:21.430Z,97323.53
2023-04-11T03:16:48.081Z,97325.16
2023-04-11T03:19:14.901Z,97320.91
2023-04-11T03:21:41.578Z,97323.94
2023-04-11T03:24:08.430Z,97318.22
2023-04-11T03:26:35.239Z,97315.31
2023-04-11T03:29:01.880Z,97316.72
2023-04-11T03:31:30.536Z,97320.94
2023-04-11T03:33:59.445Z,97318.31
2023-04-11T03:36:29.746Z,97322.50
2023-04-11T03:38:56.652Z,97304.56
2023-04-11T03:41:23.554Z,97306.50
2023-04-11T03:43:50.317Z,97308.09
2023-04-11T03:46:18.079Z,97309.44
2023-04-11T03:48:47.242Z,97297.34
2023-04-11T03:51:13.971Z,97300.13
2023-04-11T03:53:40.850Z,97327.94
2023-04-11T03:56:08.203Z,97324.72
2023-04-11T03:58:34.818Z,97314.00
2023-04-11T04:01:02.867Z,97315.34
2023-04-11T04:03:29.888Z,97305.00
2023-04-11T04:05:57.023Z,97320.31
2023-04-11T04:08:23.747Z,97301.28
2023-04-11T04:10:50.492Z,97297.81
2023-04-11T04:13:17.331Z,97309.31
2023-04-11T04:15:44.111Z,97297.75
2023-04-11T04:18:10.947Z,97294.28
2023-04-11T04:20:37.700Z,97293.88
2023-04-11T04:23:04.849Z,97278.38
2023-04-11T04:25:31.618Z,97289.34
2023-04-11T04:28:01.058Z,97292.03
2023-04-11T04:30:29.118Z,97279.53
2023-04-11T04:33:01.569Z,97290.69
2023-04-11T04:35:28.433Z,97282.56
2023-04-11T04:37:55.193Z,97277.59
2023-04-11T04:40:22.875Z,97270.22
2023-04-11T04:42:58.802Z,97268.19
2023-04-11T04:45:26.769Z,97267.34
2023-04-11T04:47:53.423Z,97256.88
2023-04-11T04:50:21.400Z,97256.50
2023-04-11T04:52:59.091Z,97257.47
2023-04-11T04:55:26.207Z,97247.31
2023-04-11T04:57:52.962Z,97246.91
2023-04-11T05:00:22.503Z,97234.63
2023-04-11T05:02:49.988Z,97219.28
2023-04-11T05:05:16.938Z,97224.81
2023-04-11T05:07:43.954Z,97230.91
2023-04-11T05:10:10.939Z,97229.59
2023-04-11T05:12:37.710Z,97228.31
2023-04-11T05:15:04.826Z,97224.16
2023-04-11T05:17:32.022Z,97215.88
2023-04-11T05:19:58.762Z,97202.69
2023-04-11T05:22:25.490Z,97202.34
2023-04-11T05:24:52.111Z,97209.63
2023-04-11T05:27:19.501Z,97203.56
2023-04-11T05:29:46.470Z,97204.88
2023-04-11T05:32:14.210Z,97190.03
2023-04-11T05:35:02.378Z,97188.91
2023-04-11T05:37:31.473Z,97171.69
2023-04-11T05:39:58.763Z,97173.59
2023-04-11T05:42:25.626Z,97169.19
2023-04-11T05:44:52.261Z,97153.19
2023-04-11T05:47:18.877Z,97169.63
2023-04-11T05:49:45.678Z,97164.00
2023-04-11T05:52:12.382Z,97163.28
2023-04-11T05:54:39.147Z,97158.13
2023-04-11T05:57:07.815Z,97163.81
2023-04-11T05:59:34.833Z,97160.94
2023-04-11T06:02:03.055Z,97155.75
2023-04-11T06:04:30.093Z,97131.69
2023-04-11T06:06:57.038Z,97128.34
2023-04-11T06:09:23.888Z,97144.50
2023-04-11T06:11:50.831Z,97131.78
2023-04-11T06:14:17.563Z,97116.47
2023-04-11T06:16:44.384Z,97116.56
2023-04-11T06:19:11.197Z,97119.81
2023-04-11T06:21:38.191Z,97118.53
2023-04-11T06:24:08.858Z,97111.03
2023-04-11T06:26:35.801Z,97106.53
2023-04-11T06:29:06.608Z,97103.94
2023-04-11T06:31:33.948Z,97073.53
2023-04-11T06:34:01.712Z,97097.09
2023-04-11T06:36:28.847Z,97082.53
2023-04-11T06:38:55.636Z,97096.38
2023-04-11T06:41:22.410Z,97093.41
2023-04-11T06:43:49.215Z,97092.53
2023-04-11T06:46:15.925Z,97099.13
2023-04-11T06:48:42.748Z,97087.59
2023-04-11T06:51:10.709Z,97097.38
2023-04-11T06:53:37.582Z,97096.59
2023-04-11T06:56:04.733Z,97087.75
2023-04-11T06:58:31.495Z,97097.44
2023-04-11T07:00:58.419Z,97078.19
2023-04-11T07:03:25.412Z,97089.22
2023-04-11T07:05:52.581Z,97097.63
2023-04-11T07:08:19.310Z,97098.25
2023-04-11T07:10:47.032Z,97100.06
2023-04-11T07:13:13.739Z,97064.75
2023-04-11T07:15:40.385Z,97079.38
2023-04-11T07:18:07.216Z,97085.25
2023-04-11T07:20:34.527Z,97086.34
2023-04-11T07:23:01.283Z,97082.13
2023-04-11T07:25:30.858Z,97075.06
2023-04-11T07:27:57.941Z,97072.22
2023-04-11T07:30:24.727Z,97074.19
2023-04-11T07:32:51.643Z,97063.44
2023-04-11T07:35:18.926Z,97053.56
2023-04-11T07:37:45.731Z,97066.53
2023-04-11T07:40:16.133Z,97054.25
2023-04-11T07:42:42.860Z,97061.38
2023-04-11T07:45:09.835Z,97048.88
2023-04-11T07:47:36.885Z,97057.09
2023-04-11T07:50:04.830Z,97052.13
2023-04-11T07:52:31.933Z,97060.00
2023-04-11T07:54:59.084Z,97045.00
2023-04-11T07:57:25.814Z,97057.09
2023-04-11T07:59:52.643Z,97055.75
2023-04-11T08:02:19.760Z,97051.25
2023-04-11T08:04:46.733Z,97046.47
2023-04-11T08:07:13.735Z,97052.56
2023-04-11T08:09:42.101Z,97053.97
2023-04-11T08:12:09.274Z,97046.31
2023-04-11T08:14:36.952Z,97031.84
2023-04-11T08:17:04.623Z,97025.38
2023-04-11T08:19:34.917Z,97013.41
2023-04-11T08:22:01.794Z,97009.47
2023-04-11T08:24:28.514Z,97001.91
2023-04-11T08:26:55.236Z,96994.88
2023-04-11T08:29:24.035Z,96997.72
2023-04-11T08:31:50.758Z,96948.84
2023-04-11T08:34:17.426Z,96964.41
2023-04-11T08:36:45.625Z,96971.19
2023-04-11T08:39:12.471Z,96993.38
2023-04-11T08:41:39.763Z,96981.41
2023-04-11T08:44:11.927Z,96974.81
2023-04-11T08:46:42.590Z,96957.47
2023-04-11T08:49:10.156Z,96953.59
2023-04-11T08:51:38.477Z,96953.69
2023-04-11T08:54:06.369Z,96975.75
2023-04-11T08:56:35.008Z,96956.31
2023-04-11T08:59:02.594Z,96932.13
2023-04-11T09:01:35.381Z,96955.97
2023-04-11T09:04:05.611Z,96953.97
2023-04-11T09:06:33.881Z,96956.97
2023-04-11T09:09:05.353Z,96952.16
2023-04-11T09:11:51.294Z,96943.69
2023-04-11T09:14:18.019Z,96946.00
2023-04-11T09:16:56.932Z,96946.94
2023-04-11T09:19:25.285Z,96948.25
2023-04-11T09:21:54.149Z,96924.19
2023-04-11T09:24:20.938Z,96932.56
2023-04-11T09:26:47.823Z,96920.16
2023-04-11T09:29:40.425Z,96927.13
2023-04-11T09:32:07.723Z,96921.56
2023-04-11T09:34:37.861Z,96908.31
2023-04-11T09:37:04.986Z,96903.00
2023-04-11T09:39:32.624Z,96904.88
2023-04-11T09:41:59.456Z,96896.38
2023-04-11T09:44:38.323Z,96899.41
2023-04-11T09:47:05.623Z,96887.88
2023-04-11T09:49:35.202Z,96889.63
2023-04-11T09:52:02.587Z,96874.50
2023-04-11T09:54:32.202Z,96884.59
2023-04-11T09:56:59.539Z,96877.31
2023-04-11T09:59:27.682Z,96854.78
2023-04-11T10:01:55.017Z,96855.59
2023-04-11T10:04:23.000Z,96844.72
2023-04-11T10:07:06.023Z,96848.16
2023-04-11T10:09:33.566Z,96846.53
2023-04-11T10:12:00.618Z,96840.69
2023-04-11T10:14:39.670Z,96840.44
2023-04-11T10:17:16.934Z,96824.06
2023-04-11T10:19:46.049Z,96813.88
2023-04-11T10:22:41.777Z,96838.91
2023-04-11T10:25:22.145Z,96833.25
2023-04-11T10:27:50.661Z,96829.91
2023-04-11T10:30:17.532Z,96817.28
2023-04-11T10:33:21.390Z,96821.41
2023-04-11T10:36:03.199Z,96829.19
2023-04-11T10:38:43.477Z,96820.56
2023-04-11T10:41:28.210Z,96833.28
2023-04-11T10:44:13.677Z,96817.16
2023-04-11T10:46:55.538Z,96815.06
2023-04-11T10:49:32.704Z,96815.03
2023-04-11T10:52:17.747Z,96820.00
2023-04-11T10:54:48.061Z,96818.53
2023-04-11T10:57:14.746Z,96817.34
2023-04-11T10:59:44.564Z,96806.34
2023-04-11T11:02:11.441Z,96813.06
2023-04-11T11:04:39.339Z,96807.94
2023-04-11T11:07:08.561Z,96779.34
2023-04-11T11:09:56.899Z,96713.34
2023-04-11T11:12:23.826Z,96772.25
2023-04-11T11:14:50.514Z,96803.50
2023-04-11T11:17:17.535Z,96796.94
2023-04-11T11:19:46.072Z,96790.63
2023-04-11T11:22:16.530Z,96784.28
2023-04-11T11:24:43.635Z,96766.84
2023-04-11T11:27:25.326Z,96775.94
2023-04-11T11:29:52.905Z,96781.81
2023-04-11T11:32:26.671Z,96781.50
2023-04-11T11:34:53.619Z,96777.50
2023-04-11T11:37:21.541Z,96774.28
2023-04-11T11:39:49.488Z,96765.69
2023-04-11T11:42:16.799Z,96755.63
2023-04-11T11:44:43.560Z,96762.38
2023-04-11T11:47:17.682Z,96751.19
2023-04-11T11:49:54.401Z,96754.69
2023-04-11T11:52:42.277Z,96761.78
2023-04-11T11:55:18.107Z,96764.19
2023-04-11T11:57:46.593Z,96753.50
2023-04-11T12:00:15.105Z,96749.09
2023-04-11T12:02:45.125Z,96744.88
2023-04-11T12:05:12.555Z,96747.59
2023-04-11T12:07:40.003Z,96743.19
2023-04-11T12:10:09.307Z,96738.91
2023-04-11T12:12:41.218Z,96748.00
2023-04-11T12:15:12.078Z,96748.84
2023-04-11T12:17:40.153Z,96720.56
2023-04-11T12:20:08.501Z,96729.91
2023-04-11T12:22:35.773Z,96710.78
2023-04-11T12:25:10.783Z,96718.44
2023-04-11T12:27:38.763Z,96744.84
2023-04-11T12:30:06.870Z,96726.94
2023-04-11T12:32:34.325Z,96718.31
2023-04-11T12:35:02.987Z,96719.47
2023-04-11T12:37:32.402Z,96712.09
2023-04-11T12:39:59.374Z,96700.81
2023-04-11T12:42:27.382Z,96697.47
2023-04-11T12:44:54.617Z,96695.47
2023-04-11T12:47:21.613Z,96693.88
2023-04-11T12:49:48.511Z,96697.56
2023-04-11T12:52:15.322Z,96683.81
2023-04-11T12:54:42.328Z,96667.22
2023-04-11T12:57:12.536Z,96677.09
2023-04-11T12:59:39.529Z,96680.59
2023-04-11T13:02:06.565Z,96679.75
2023-04-11T13:04:33.541Z,96676.75
2023-04-11T13:07:01.002Z,96662.38
2023-04-11T13:09:34.424Z,96676.50
2023-04-11T13:12:04.479Z,96661.91
2023-04-11T13:14:31.224Z,96656.13
2023-04-11T13:16:57.945Z,96655.06
2023-04-11T13:19:24.715Z,96657.81
2023-04-11T13:21:51.423Z,96625.38
2023-04-11T13:24:18.217Z,96650.38
2023-04-11T13:26:48.252Z,96644.88
2023-04-11T13:29:15.329Z,96637.81
2023-04-11T13:31:42.637Z,96632.25
2023-04-11T13:34:09.378Z,96612.25
2023-04-11T13:36:37.159Z,96628.06
2023-04-11T13:39:04.212Z,96625.78
2023-04-11T13:41:32.650Z,96630.63
2023-04-11T13:43:59.422Z,96622.41
2023-04-11T13:46:26.451Z,96623.25
2023-04-11T13:48:53.214Z,96614.97
2023-04-11T13:51:19.948Z,96613.00
2023-04-11T13:53:48.684Z,96616.47
2023-04-11T13:56:15.535Z,96599.13
2023-04-11T13:58:42.343Z,96613.28
2023-04-11T14:01:09.124Z,96616.84
2023-04-11T14:03:36.073Z,96603.88
2023-04-11T14:06:03.633Z,96594.06
2023-04-11T14:08:30.543Z,96609.44
2023-04-11T14:10:57.190Z,96598.41
2023-04-11T14:13:24.048Z,96596.47
2023-04-11T14:16:04.875Z,96573.59
2023-04-11T14:18:36.149Z,96573.59
2023-04-11T14:21:04.930Z,96597.16
2023-04-11T14:23:31.759Z,96569.63
2023-04-11T14:25:59.449Z,96584.53
2023-04-11T14:28:26.793Z,96581.78
2023-04-11T14:30:54.365Z,96576.25
2023-04-11T14:33:21.282Z,96596.66
2023-04-11T14:35:48.268Z,96590.78
2023-04-11T14:38:16.086Z,96590.31
2023-04-11T14:40:43.105Z,96572.59
2023-04-11T14:43:11.872Z,96581.16
2023-04-11T14:45:38.674Z,96576.84
2023-04-11T14:48:05.607Z,96580.78
2023-04-11T14:50:32.838Z,96567.84
2023-04-11T14:52:59.534Z,96570.19
2023-04-11T14:55:26.291Z,96560.81
2023-04-11T14:57:55.318Z,96557.22
2023-04-11T15:00:25.137Z,96564.34
2023-04-11T15:02:57.679Z,96565.88
2023-04-11T15:05:24.604Z,96563.13
2023-04-11T15:07:52.783Z,96548.97
2023-04-11T15:10:22.431Z,96563.94
2023-04-11T15:12:49.576Z,96561.91
2023-04-11T15:15:16.936Z,96568.59
2023-04-11T15:17:49.116Z,96552.88
2023-04-11T15:20:17.045Z,96564.66
2023-04-11T15:22:46.033Z,96568.53
2023-04-11T15:25:16.980Z,96558.31
2023-04-11T15:27:44.071Z,96563.75
2023-04-11T15:30:11.603Z,96544.41
2023-04-11T15:32:44.895Z,96554.53
2023-04-11T15:35:11.661Z,96553.25
2023-04-11T15:37:38.357Z,96563.00
2023-04-11T15:40:06.400Z,96573.53
2023-04-11T15:42:35.654Z,96566.34
2023-04-11T15:45:02.815Z,96550.44
2023-04-11T15:47:30.451Z,96560.97
2023-04-11T15:49:59.135Z,96572.25
2023-04-11T15:52:25.901Z,96583.88
2023-04-11T15:54:52.689Z,96573.09
2023-04-11T15:57:19.728Z,96583.47
2023-04-11T15:59:46.657Z,96578.97
2023-04-11T16:02:15.499Z,96584.78
2023-04-11T16:04:47.276Z,96577.06
2023-04-11T16:07:18.595Z,96580.03
2023-04-11T16:09:45.726Z,96593.59
2023-04-11T16:12:12.649Z,96589.56
2023-04-11T16:14:39.293Z,96565.44
2023-04-11T16:17:06.357Z,96587.03
2023-04-11T16:19:33.181Z,96583.78
2023-04-11T16:22:04.926Z,96589.69
2023-04-11T16:24:34.033Z,96566.50
2023-04-11T16:27:01.231Z,96594.09
2023-04-11T16:29:27.910Z,96603.56
2023-04-11T16:31:55.350Z,96584.69
2023-04-11T16:34:25.208Z,96596.59
2023-04-11T16:36:52.486Z,96601.88
2023-04-11T16:39:19.378Z,96606.88
2023-04-11T16:41:46.112Z,96608.13
2023-04-11T16:44:13.440Z,96603.66
2023-04-11T16:46:43.746Z,96620.16
2023-04-11T16:49:11.153Z,96584.28
2023-04-11T16:51:38.357Z,96613.56
2023-04-11T16:54:09.998Z,96630.94
2023-04-11T16:56:37.464Z,96622.34
2023-04-11T16:59:05.238Z,96610.28
2023-04-11T17:01:32.253Z,96648.63
2023-04-11T17:03:59.134Z,96643.44
2023-04-11T17:06:27.285Z,96635.69
2023-04-11T17:08:57.248Z,96643.59
2023-04-11T17:11:24.046Z,96644.63
2023-04-11T17:13:51.064Z,96612.44
2023-04-11T17:16:18.411Z,96652.16
2023-04-11T17:18:45.321Z,96658.09
2023-04-11T17:21:12.103Z,96646.84
2023-04-11T17:23:42.487Z,96648.34
2023-04-11T17:26:12.126Z,96650.47
2023-04-11T17:28:40.059Z,96655.22
2023-04-11T17:31:14.365Z,96651.72
2023-04-11T17:33:42.020Z,96661.72
2023-04-11T17:36:10.769Z,96658.00
2023-04-11T17:38:38.572Z,96657.19
2023-04-11T17:41:14.317Z,96653.13
2023-04-11T17:43:41.502Z,96668.63
2023-04-11T17:46:09.292Z,96664.31
2023-04-11T17:48:36.597Z,96688.47
2023-04-11T17:51:05.820Z,96676.06
2023-04-11T17:53:33.045Z,96689.28
2023-04-11T17:56:04.835Z,96674.34
2023-04-11T17:58:32.099Z,96676.19
2023-04-11T18:00:58.827Z,96684.78
2023-04-11T18:03:26.286Z,96675.19
2023-04-11T18:05:54.715Z,96679.28
2023-04-11T18:08:28.697Z,96690.00
2023-04-11T18:11:00.341Z,96686.38
2023-04-11T18:13:27.701Z,96708.09
2023-04-11T18:15:54.585Z,96720.00
2023-04-11T18:18:21.434Z,96716.59
2023-04-11T18:20:48.429Z,96717.09
2023-04-11T18:23:15.381Z,96731.09
2023-04-11T18:25:45.276Z,96618.59
2023-04-11T18:28:11.908Z,96741.22
2023-04-11T18:30:38.594Z,96738.78
2023-04-11T18:33:05.435Z,96732.31
2023-04-11T18:35:32.196Z,96750.81
2023-04-11T18:38:00.250Z,96746.34
2023-04-11T18:40:27.814Z,96737.69
2023-04-11T18:42:58.287Z,96729.75
2023-04-11T18:45:25.951Z,96736.94
2023-04-11T18:47:53.183Z,96749.56
2023-04-11T18:50:20.513Z,96738.50
2023-04-11T18:52:52.045Z,96756.09
2023-04-11T18:55:21.733Z,96753.59
2023-04-11T18:57:49.111Z,96749.81
2023-04-11T19:00:19.062Z,96772.88
2023-04-11T19:02:47.021Z,96753.66
2023-04-11T19:05:14.654Z,96757.78
2023-04-11T19:07:45.805Z,96766.13
2023-04-11T19:10:12.895Z,96756.72
2023-04-11T19:12:43.161Z,96776.47
2023-04-11T19:15:10.608Z,96778.84
2023-04-11T19:17:38.771Z,96782.22
2023-04-11T19:20:16.845Z,96767.94
2023-04-11T19:22:43.682Z,96784.34
2023-04-11T19:25:12.013Z,96770.34
2023-04-11T19:27:41.585Z,96788.16
2023-04-11T19:30:10.363Z,96805.00
2023-04-11T19:32:38.876Z,96754.91
2023-04-11T19:35:08.920Z,96798.63
2023-04-11T19:37:36.511Z,96809.78
2023-04-11T19:40:07.463Z,96809.63
2023-04-11T19:42:37.262Z,96780.38
2023-04-11T19:45:05.154Z,96791.97
2023-04-11T19:47:32.862Z,96798.34
2023-04-11T19:50:01.255Z,96778.28
2023-04-11T19:52:29.018Z,96791.19
2023-04-11T19:54:56.721Z,96802.63
2023-04-11T19:57:25.708Z,96800.41
2023-04-11T19:59:52.634Z,96796.72
2023-04-11T20:02:19.392Z,96801.16
2023-04-11T20:04:46.379Z,96805.31
2023-04-11T20:07:13.327Z,96787.94
2023-04-11T20:09:40.094Z,96793.81
2023-04-11T20:12:07.340Z,96771.84
2023-04-11T20:14:34.504Z,96777.56
2023-04-11T20:17:01.495Z,96795.88
2023-04-11T20:19:29.881Z,96790.31
2023-04-11T20:21:56.693Z,96789.53
2023-04-11T20:24:24.096Z,96785.09
2023-04-11T20:26:51.351Z,96778.84
2023-04-11T20:29:18.412Z,96794.81
2023-04-11T20:31:45.139Z,96788.72
2023-04-11T20:34:17.761Z,96767.03
2023-04-11T20:36:44.928Z,96783.13
2023-04-11T20:39:11.586Z,96786.94
2023-04-11T20:41:40.607Z,96791.25
2023-04-11T20:44:07.755Z,96781.06
2023-04-11T20:46:39.652Z,96787.59
2023-04-11T20:49:07.061Z,96783.91
2023-04-11T20:51:34.784Z,96779.28
2023-04-11T20:54:01.559Z,96785.19
2023-04-11T20:56:35.444Z,96786.59
2023-04-11T20:59:02.954Z,96786.16
2023-04-11T21:01:32.949Z,96782.28
2023-04-11T21:04:03.474Z,96776.41
2023-04-11T21:06:31.947Z,96787.25
2023-04-11T21:09:06.046Z,96786.78
2023-04-11T21:11:33.285Z,96777.22
2023-04-11T21:14:00.134Z,96765.63
2023-04-11T21:16:26.964Z,96783.13
2023-04-11T21:18:53.665Z,96782.00
2023-04-11T21:21:20.914Z,96779.13
2023-04-11T21:23:47.638Z,96779.75
2023-04-11T21:26:14.336Z,96780.41
2023-04-11T21:28:41.142Z,96779.31
2023-04-11T21:31:07.831Z,96782.19
2023-04-11T21:33:34.616Z,96793.34
2023-04-11T21:36:01.791Z,96777.09
2023-04-11T21:38:29.204Z,96785.88
2023-04-11T21:40:57.061Z,96788.09
2023-04-11T21:43:24.262Z,96797.22
2023-04-11T21:45:51.040Z,96780.19
2023-04-11T21:48:17.830Z,96766.84
2023-04-11T21:50:45.993Z,96784.19
2023-04-11T21:53:14.301Z,96783.41
2023-04-11T21:55:47.554Z,96792.44
2023-04-11T21:58:27.949Z,96769.22
2023-04-11T22:00:56.284Z,96798.34
2023-04-11T22:03:23.693Z,96782.09
2023-04-11T22:05:52.624Z,96779.88
2023-04-11T22:08:20.491Z,96780.81
2023-04-11T22:10:48.349Z,96783.53
2023-04-11T22:13:17.431Z,96787.22
2023-04-11T22:15:45.233Z,96777.94
2023-04-11T22:18:12.534Z,96782.56
2023-04-11T22:20:43.825Z,96780.34
2023-04-11T22:23:13.280Z,96786.50
2023-04-11T22:25:44.253Z,96781.25
2023-04-11T22:28:15.755Z,96790.63
2023-04-11T22:30:44.398Z,96782.66
2023-04-11T22:33:13.866Z,96785.84
2023-04-11T22:35:40.777Z,96792.19
2023-04-11T22:38:07.594Z,96788.03
2023-04-11T22:40:35.220Z,96780.84
2023-04-11T22:43:05.721Z,96789.97
2023-04-11T22:45:36.920Z,96792.00
2023-04-11T22:48:04.708Z,96788.88
2023-04-11T22:50:39.210Z,96785.88
2023-04-11T22:53:06.102Z,96791.16
2023-04-11T22:55:35.775Z,96794.59
2023-04-11T22:58:03.751Z,96783.28
2023-04-11T23:00:30.427Z,96787.28
2023-04-11T23:02:59.887Z,96791.13
2023-04-11T23:05:26.819Z,96789.69
2023-04-11T23:07:53.459Z,96785.88
2023-04-11T23:10:21.133Z,96776.66
2023-04-11T23:12:49.651Z,96778.84
2023-04-11T23:15:17.557Z,96783.63
2023-04-11T23:17:58.979Z,96783.31
2023-04-11T23:20:25.798Z,96788.44
2023-04-11T23:22:52.471Z,96783.03
2023-04-11T23:25:19.318Z,96781.09
2023-04-11T23:27:46.213Z,96784.00
2023-04-11T23:30:15.224Z,96779.69
2023-04-11T23:32:43.035Z,96788.13
2023-04-11T23:35:09.976Z,96774.59
2023-04-11T23:37:36.791Z,96774.75
2023-04-11T23:40:11.093Z,96777.47
2023-04-11T23:42:39.234Z,96774.44
2023-04-11T23:45:07.320Z,96769.03
2023-04-11T23:47:34.861Z,96758.09
2023-04-11T23:50:02.926Z,96777.66
2023-04-11T23:52:30.587Z,96763.50
2023-04-11T23:54:57.497Z,96769.19
2023-04-11T23:57:24.926Z,96776.38
2023-04-11T23:59:51.535Z,96780.81
